Time;durP1;ratioP1;P1;durP2;ratioP2;P2;SDS_P1;SDS_P2;PMS_P1;PMS_P2;Temp;Humidity;BMP_temperature;BMP_pressure;BME280_temperature;BME280_humidity;BME280_pressure;Samples;Min_cycle;Max_cycle;Signal;HPM_P1;HPM_P2
2023/05/13 00:02:51;;;;;;;10.10;3.78;;;25.60;99.90;;;;;;5009578;28;20162;-49
2023/05/13 00:05:17;;;;;;;8.45;4.00;;;25.70;99.90;;;;;;5012598;28;20101;-49
2023/05/13 00:07:42;;;;;;;7.50;2.00;;;25.70;99.90;;;;;;5010835;28;20018;-49
2023/05/13 00:10:09;;;;;;;14.43;2.67;;;25.60;99.90;;;;;;5012608;28;20044;-49
2023/05/13 00:12:34;;;;;;;9.90;2.22;;;25.50;99.90;;;;;;5011961;28;20026;-48
2023/05/13 00:15:00;;;;;;;10.15;1.70;;;25.30;99.90;;;;;;5012514;28;20410;-49
2023/05/13 00:17:26;;;;;;;9.05;2.17;;;25.20;99.90;;;;;;5011725;28;20412;-49
2023/05/13 00:19:52;;;;;;;9.98;2.88;;;25.00;99.90;;;;;;5027046;28;20080;-49
2023/05/13 00:22:17;;;;;;;12.95;2.67;;;24.90;99.90;;;;;;5009335;28;20022;-49
2023/05/13 00:24:43;;;;;;;9.63;2.00;;;24.80;99.90;;;;;;5012050;28;20057;-50
2023/05/13 00:27:12;;;;;;;13.18;2.75;;;24.70;99.90;;;;;;5010909;28;20037;-49
2023/05/13 00:29:38;;;;;;;6.63;2.28;;;24.60;99.90;;;;;;5011065;28;20513;-50
2023/05/13 00:32:04;;;;;;;7.10;1.95;;;24.50;99.90;;;;;;5011973;28;20037;-49
2023/05/13 00:34:30;;;;;;;13.75;2.33;;;24.50;99.90;;;;;;5011961;28;20014;-49
2023/05/13 00:36:56;;;;;;;12.10;2.70;;;24.40;99.90;;;;;;5011749;28;20488;-49
2023/05/13 00:39:22;;;;;;;12.00;2.05;;;24.40;99.90;;;;;;5011596;28;20018;-49
2023/05/13 00:41:48;;;;;;;15.27;2.28;;;24.30;99.90;;;;;;5011918;28;20400;-49
2023/05/13 00:44:14;;;;;;;12.07;3.28;;;24.30;99.90;;;;;;5012206;28;20038;-49
2023/05/13 00:46:40;;;;;;;13.23;1.75;;;24.30;99.90;;;;;;5011620;28;20026;-49
2023/05/13 00:49:05;;;;;;;8.68;2.20;;;24.20;99.90;;;;;;5011483;28;20026;-51
2023/05/13 00:51:31;;;;;;;9.20;2.05;;;24.10;99.90;;;;;;5011599;28;20443;-49
2023/05/13 00:53:58;;;;;;;12.50;2.22;;;24.10;99.90;;;;;;5028616;28;20372;-49
2023/05/13 00:56:25;;;;;;;13.82;2.38;;;24.00;99.90;;;;;;5011759;28;20028;-49
2023/05/13 00:58:51;;;;;;;7.72;1.60;;;24.00;99.90;;;;;;5010955;28;20065;-49
2023/05/13 01:01:37;;;;;;;10.32;2.00;;;23.90;99.90;;;;;;5019399;23;20078;-50
2023/05/13 01:04:29;;;;;;;10.13;2.65;;;23.90;99.90;;;;;;4988553;28;20036;-50
2023/05/13 01:07:12;;;;;;;7.03;1.65;;;23.90;99.90;;;;;;4991579;28;20054;-50
2023/05/13 01:10:40;;;;;;;6.50;1.52;;;23.80;99.90;;;;;;4988108;28;20126;-49
2023/05/13 01:13:12;;;;;;;5.68;1.55;;;23.90;99.90;;;;;;4980514;28;20061;-50
2023/05/13 01:15:43;;;;;;;4.95;1.40;;;23.90;99.90;;;;;;4989991;28;20080;-50
2023/05/13 01:18:13;;;;;;;5.18;1.70;;;24.00;99.90;;;;;;4990926;28;20014;-50
2023/05/13 01:20:43;;;;;;;7.10;1.30;;;24.10;99.90;;;;;;4989722;28;20039;-50
2023/05/13 01:23:10;;;;;;;8.73;1.55;;;24.10;99.90;;;;;;4988822;28;20030;-50
2023/05/13 01:25:36;;;;;;;7.25;1.60;;;24.30;99.90;;;;;;4993431;28;20058;-50
2023/05/13 01:28:02;;;;;;;5.80;1.50;;;24.30;99.90;;;;;;4990752;28;20026;-49
2023/05/13 01:30:29;;;;;;;3.28;1.23;;;24.40;99.90;;;;;;4992693;28;20054;-48
2023/05/13 01:32:55;;;;;;;6.28;1.77;;;24.50;99.90;;;;;;4993117;28;20029;-50
2023/05/13 01:35:23;;;;;;;5.38;1.15;;;24.50;99.90;;;;;;4993862;28;20030;-49
2023/05/13 01:37:49;;;;;;;7.28;1.20;;;24.50;99.90;;;;;;4993667;28;20014;-49
2023/05/13 01:40:15;;;;;;;6.40;1.95;;;24.60;99.90;;;;;;4992092;28;20038;-49
2023/05/13 01:42:42;;;;;;;3.72;1.38;;;24.70;99.90;;;;;;4992937;28;20083;-49
2023/05/13 01:45:08;;;;;;;5.70;1.45;;;24.70;99.90;;;;;;4993151;28;20419;-50
2023/05/13 01:47:34;;;;;;;5.70;1.75;;;24.70;99.90;;;;;;4993103;28;20492;-49
2023/05/13 01:49:59;;;;;;;3.67;1.45;;;24.70;99.90;;;;;;4989077;28;20058;-49
2023/05/13 01:52:25;;;;;;;7.93;1.55;;;24.80;99.90;;;;;;4993329;28;20053;-49
2023/05/13 01:54:51;;;;;;;9.57;2.50;;;24.80;99.90;;;;;;4992935;28;20022;-48
2023/05/13 01:57:17;;;;;;;7.40;2.92;;;24.80;99.90;;;;;;4990748;28;20074;-49
2023/05/13 01:59:43;;;;;;;4.53;2.08;;;24.90;99.90;;;;;;4992913;28;20030;-49
2023/05/13 02:02:08;;;;;;;5.18;1.90;;;24.80;99.90;;;;;;4993646;28;20045;-49
2023/05/13 02:04:34;;;;;;;7.65;2.13;;;24.90;99.90;;;;;;4985500;28;20041;-49
2023/05/13 02:07:00;;;;;;;6.03;2.30;;;24.90;99.90;;;;;;4987892;28;20026;-49
2023/05/13 02:09:25;;;;;;;5.35;2.10;;;24.90;99.90;;;;;;4990397;28;20420;-49
2023/05/13 02:11:51;;;;;;;4.68;1.80;;;25.00;99.90;;;;;;4992213;28;20420;-49
2023/05/13 02:14:17;;;;;;;7.78;2.65;;;24.90;99.90;;;;;;4992018;28;20523;-49
2023/05/13 02:16:43;;;;;;;7.90;2.60;;;25.00;99.90;;;;;;4992004;28;20054;-49
2023/05/13 02:19:09;;;;;;;5.95;2.72;;;25.00;99.90;;;;;;4991619;28;20033;-50
2023/05/13 02:21:34;;;;;;;5.25;2.53;;;25.00;99.90;;;;;;4989428;28;20045;-49
2023/05/13 02:24:00;;;;;;;6.20;3.00;;;25.00;99.90;;;;;;4992411;28;20030;-49
2023/05/13 02:26:26;;;;;;;6.90;2.70;;;25.00;99.90;;;;;;4991837;28;20030;-50
2023/05/13 02:28:52;;;;;;;6.65;3.00;;;25.00;99.90;;;;;;4992006;28;20560;-49
2023/05/13 02:31:18;;;;;;;6.13;2.90;;;25.00;99.90;;;;;;4990910;28;20113;-50
2023/05/13 02:33:43;;;;;;;7.28;2.83;;;25.00;99.90;;;;;;4992705;28;20101;-50
2023/05/13 02:36:09;;;;;;;5.47;3.08;;;25.00;99.90;;;;;;4991408;28;20050;-49
2023/05/13 02:38:35;;;;;;;5.88;3.15;;;25.00;99.90;;;;;;4989686;28;20034;-49
2023/05/13 02:41:00;;;;;;;7.93;2.55;;;25.00;99.90;;;;;;4991159;28;20088;-50
2023/05/13 02:43:27;;;;;;;6.93;2.90;;;25.00;99.90;;;;;;5004473;28;20092;-49
2023/05/13 02:45:53;;;;;;;6.00;2.75;;;25.00;99.90;;;;;;4990532;28;20050;-50
2023/05/13 02:48:19;;;;;;;7.28;3.00;;;25.00;99.90;;;;;;4990361;28;20058;-50
2023/05/13 02:50:44;;;;;;;7.45;3.70;;;25.00;99.90;;;;;;4991699;28;20022;-50
2023/05/13 02:53:10;;;;;;;6.22;3.22;;;25.00;99.90;;;;;;5016918;28;20060;-50
2023/05/13 02:55:36;;;;;;;5.68;3.20;;;25.00;99.90;;;;;;4990343;28;20049;-50
2023/05/13 02:58:03;;;;;;;7.15;3.38;;;25.00;99.90;;;;;;4990273;28;20105;-50
2023/05/13 03:00:29;;;;;;;6.77;3.07;;;25.00;99.90;;;;;;5007152;23;20088;-54
2023/05/13 03:02:55;;;;;;;8.02;3.75;;;25.00;99.90;;;;;;4951582;28;20280;-53
2023/05/13 03:05:21;;;;;;;5.15;2.90;;;25.00;99.90;;;;;;4953346;29;20027;-54
2023/05/13 03:07:47;;;;;;;7.60;3.85;;;25.00;99.90;;;;;;4951798;28;20027;-54
2023/05/13 03:10:13;;;;;;;7.85;3.55;;;25.00;99.90;;;;;;4953470;28;20035;-53
2023/05/13 03:12:39;;;;;;;4.65;2.90;;;25.00;99.90;;;;;;4953418;28;20035;-53
2023/05/13 03:15:05;;;;;;;7.35;3.55;;;25.00;99.90;;;;;;4953426;28;20031;-53
2023/05/13 03:17:32;;;;;;;6.43;3.88;;;25.00;99.90;;;;;;4953396;28;20031;-53
2023/05/13 03:19:58;;;;;;;7.20;4.00;;;25.00;99.90;;;;;;4953610;28;20035;-53
2023/05/13 03:22:24;;;;;;;8.70;3.97;;;25.00;99.90;;;;;;4953866;28;20380;-53
2023/05/13 03:24:49;;;;;;;6.65;3.35;;;25.00;99.90;;;;;;4953502;28;20024;-53
2023/05/13 03:27:15;;;;;;;8.35;3.85;;;25.00;99.90;;;;;;4953133;28;20035;-53
2023/05/13 03:29:41;;;;;;;6.55;3.58;;;25.00;99.90;;;;;;4953472;28;20098;-53
2023/05/13 03:32:07;;;;;;;8.55;3.63;;;24.90;99.90;;;;;;4953276;28;20027;-53
2023/05/13 03:34:35;;;;;;;10.13;4.40;;;25.00;99.90;;;;;;4953175;28;20019;-54
2023/05/13 03:37:01;;;;;;;6.70;3.40;;;25.00;99.90;;;;;;4953303;28;20066;-54
2023/05/13 03:39:26;;;;;;;6.43;3.75;;;25.00;99.90;;;;;;4953300;28;20047;-55
2023/05/13 03:41:52;;;;;;;6.90;3.90;;;25.00;99.90;;;;;;4953543;28;20039;-54
2023/05/13 03:44:18;;;;;;;6.72;3.65;;;25.00;99.90;;;;;;4955283;28;20027;-54
2023/05/13 03:46:44;;;;;;;5.80;3.40;;;25.00;99.90;;;;;;4956972;28;20027;-54
2023/05/13 03:49:09;;;;;;;7.45;3.88;;;25.00;99.90;;;;;;4956594;28;20034;-54
2023/05/13 03:51:35;;;;;;;7.20;3.88;;;24.90;99.90;;;;;;4956627;28;20031;-53
2023/05/13 03:54:01;;;;;;;6.45;3.50;;;24.90;99.90;;;;;;4956555;28;20035;-54
2023/05/13 03:56:27;;;;;;;6.47;3.72;;;25.00;99.90;;;;;;4956591;28;20493;-55
2023/05/13 03:58:53;;;;;;;6.95;3.33;;;25.00;99.90;;;;;;4956324;28;20027;-54
2023/05/13 04:01:19;;;;;;;5.30;2.85;;;24.90;99.90;;;;;;4957024;28;20051;-54
2023/05/13 04:03:45;;;;;;;8.88;4.15;;;24.90;99.90;;;;;;4956358;28;20022;-54
2023/05/13 04:06:12;;;;;;;6.32;3.20;;;25.00;99.90;;;;;;4956498;28;20023;-54
2023/05/13 04:08:38;;;;;;;;;;;25.00;99.90;;;;;;4956997;28;20026;-54
2023/05/13 04:11:04;;;;;;;5.43;3.55;;;25.00;99.90;;;;;;4956226;28;20280;-54
2023/05/13 04:13:31;;;;;;;6.43;3.45;;;25.00;99.90;;;;;;4956706;28;20019;-54
2023/05/13 04:15:58;;;;;;;8.65;3.97;;;25.00;99.90;;;;;;4955319;28;20118;-54
2023/05/13 04:18:23;;;;;;;5.32;3.13;;;24.90;99.90;;;;;;4954951;28;20157;-53
2023/05/13 04:20:49;;;;;;;6.93;3.58;;;24.90;99.90;;;;;;4956027;28;20119;-54
2023/05/13 04:23:15;;;;;;;5.13;3.13;;;24.90;99.90;;;;;;4956215;28;20474;-53
2023/05/13 04:25:41;;;;;;;6.80;3.20;;;24.90;99.90;;;;;;4956154;28;20470;-54
2023/05/13 04:28:07;;;;;;;6.13;3.30;;;25.00;99.90;;;;;;4956030;28;20015;-54
2023/05/13 04:30:34;;;;;;;7.90;3.97;;;24.90;99.90;;;;;;4956066;28;20098;-54
2023/05/13 04:33:00;;;;;;;5.72;3.55;;;24.90;99.90;;;;;;4956207;28;20031;-54
2023/05/13 04:35:25;;;;;;;5.68;3.40;;;24.90;99.90;;;;;;4955868;28;20137;-54
2023/05/13 04:37:51;;;;;;;6.13;3.45;;;25.00;99.90;;;;;;4955941;28;20433;-54
2023/05/13 04:40:17;;;;;;;5.88;3.38;;;25.00;99.90;;;;;;4955761;28;20031;-54
2023/05/13 04:42:43;;;;;;;5.07;3.28;;;24.90;99.90;;;;;;4955719;28;20023;-54
2023/05/13 04:45:09;;;;;;;6.55;3.20;;;24.90;99.90;;;;;;4955859;28;20501;-54
2023/05/13 04:47:36;;;;;;;5.72;3.75;;;25.00;99.90;;;;;;4968585;28;20030;-54
2023/05/13 04:50:02;;;;;;;8.30;3.70;;;24.90;99.90;;;;;;4955762;28;20023;-54
2023/05/13 04:52:28;;;;;;;6.55;3.53;;;24.90;99.90;;;;;;4955450;28;20101;-54
2023/05/13 04:54:54;;;;;;;7.35;3.83;;;25.00;99.90;;;;;;4955482;28;20722;-54
2023/05/13 04:57:20;;;;;;;5.72;3.47;;;24.90;99.90;;;;;;4954330;29;20062;-54
2023/05/13 04:59:45;;;;;;;5.88;3.45;;;24.90;99.90;;;;;;4955327;28;20015;-53
2023/05/13 05:02:11;;;;;;;6.82;3.45;;;25.00;99.90;;;;;;4955300;28;20043;-53
2023/05/13 05:04:37;;;;;;;6.28;2.78;;;25.00;99.90;;;;;;4955536;28;20182;-54
2023/05/13 05:07:03;;;;;;;6.00;3.03;;;25.00;99.90;;;;;;4955559;28;20032;-53
2023/05/13 05:09:29;;;;;;;7.25;3.47;;;24.90;99.90;;;;;;4955330;28;20046;-55
2023/05/13 05:11:54;;;;;;;5.63;3.08;;;24.90;99.90;;;;;;4955605;28;20011;-54
2023/05/13 05:14:20;;;;;;;6.82;3.00;;;24.90;99.90;;;;;;4955238;29;20384;-54
2023/05/13 05:16:46;;;;;;;4.88;2.70;;;24.90;99.90;;;;;;4955307;28;20049;-54
2023/05/13 05:19:12;;;;;;;4.90;2.85;;;24.90;99.90;;;;;;4955278;29;20066;-54
2023/05/13 05:21:37;;;;;;;6.18;3.33;;;24.90;99.90;;;;;;4957129;28;20031;-54
2023/05/13 05:24:04;;;;;;;6.53;3.00;;;24.90;99.90;;;;;;4955269;28;20028;-54
2023/05/13 05:26:30;;;;;;;8.13;3.10;;;24.90;99.90;;;;;;4954825;28;20102;-54
2023/05/13 05:28:56;;;;;;;5.45;2.70;;;24.90;99.90;;;;;;4953633;28;20166;-54
2023/05/13 05:31:22;;;;;;;5.32;2.95;;;24.90;99.90;;;;;;4954764;28;20051;-54
2023/05/13 05:33:48;;;;;;;5.05;3.00;;;24.90;99.90;;;;;;4954867;28;20027;-54
2023/05/13 05:36:13;;;;;;;5.57;2.53;;;24.90;99.90;;;;;;4953510;29;20023;-54
2023/05/13 05:38:40;;;;;;;4.50;2.80;;;24.90;99.90;;;;;;4954765;28;20486;-54
2023/05/13 05:41:06;;;;;;;5.13;2.88;;;24.90;99.90;;;;;;4954745;28;20485;-54
2023/05/13 05:43:32;;;;;;;6.20;2.85;;;24.90;99.90;;;;;;4954701;28;20079;-54
2023/05/13 05:45:57;;;;;;;4.75;2.40;;;24.90;99.90;;;;;;4954546;28;20508;-55
2023/05/13 05:48:23;;;;;;;5.40;2.78;;;24.90;99.90;;;;;;4954433;29;20098;-54
2023/05/13 05:50:49;;;;;;;3.65;2.55;;;24.90;99.90;;;;;;4954481;28;20426;-54
2023/05/13 05:53:15;;;;;;;5.90;3.72;;;24.90;99.90;;;;;;4954395;28;20019;-54
2023/05/13 05:55:40;;;;;;;6.95;3.33;;;24.90;99.90;;;;;;4954568;28;20359;-54
2023/05/13 05:58:08;;;;;;;4.10;2.60;;;24.90;99.90;;;;;;4954618;28;20024;-54
2023/05/13 06:00:34;;;;;;;6.05;2.90;;;24.90;99.90;;;;;;4954461;28;20039;-54
2023/05/13 06:03:00;;;;;;;5.00;2.50;;;24.90;99.90;;;;;;4954155;28;20150;-54
2023/05/13 06:05:26;;;;;;;6.70;3.40;;;24.90;99.90;;;;;;4962792;28;20038;-54
2023/05/13 06:07:51;;;;;;;4.93;2.67;;;24.90;99.90;;;;;;4957901;28;20444;-54
2023/05/13 06:10:17;;;;;;;10.15;3.20;;;24.90;99.90;;;;;;4954242;28;20049;-55
2023/05/13 06:12:43;;;;;;;7.25;2.97;;;24.90;99.90;;;;;;4954133;28;20139;-54
2023/05/13 06:15:09;;;;;;;4.95;2.33;;;24.90;99.90;;;;;;4953255;29;20110;-54
2023/05/13 06:17:39;;;;;;;3.80;2.30;;;24.90;99.90;;;;;;4954436;28;20051;-55
2023/05/13 06:20:05;;;;;;;4.03;2.65;;;24.90;99.90;;;;;;4953968;28;20054;-54
2023/05/13 06:22:31;;;;;;;5.23;2.60;;;24.90;99.90;;;;;;4953884;28;20474;-54
2023/05/13 06:24:57;;;;;;;7.07;2.85;;;24.90;99.90;;;;;;4953934;28;20024;-54
2023/05/13 06:27:23;;;;;;;4.72;2.80;;;24.90;99.90;;;;;;4953010;29;20030;-54
2023/05/13 06:29:49;;;;;;;4.00;2.33;;;24.90;99.90;;;;;;4953774;28;20056;-54
2023/05/13 06:32:15;;;;;;;6.13;2.83;;;24.90;99.90;;;;;;4962646;28;20101;-55
2023/05/13 06:34:45;;;;;;;6.75;2.67;;;24.90;99.90;;;;;;4956461;28;20469;-54
2023/05/13 06:37:12;;;;;;;4.00;2.70;;;24.90;99.90;;;;;;4954198;28;20054;-54
2023/05/13 06:39:38;;;;;;;3.53;2.20;;;24.90;99.90;;;;;;4954051;28;21119;-54
2023/05/13 06:42:04;;;;;;;3.45;2.38;;;24.90;99.90;;;;;;4952322;29;20061;-54
2023/05/13 06:44:30;;;;;;;7.40;2.38;;;24.90;99.90;;;;;;4953547;28;20022;-54
2023/05/13 06:46:56;;;;;;;4.15;2.17;;;24.90;99.90;;;;;;4953775;28;20023;-54
2023/05/13 06:49:23;;;;;;;6.05;2.58;;;24.90;99.90;;;;;;4952206;28;20038;-54
2023/05/13 06:51:50;;;;;;;3.83;2.20;;;24.90;99.90;;;;;;4952461;28;20019;-54
2023/05/13 06:54:16;;;;;;;3.55;2.35;;;24.90;99.90;;;;;;4953678;28;20381;-54
2023/05/13 06:56:42;;;;;;;4.13;2.40;;;24.90;99.90;;;;;;4941262;29;20027;-53
2023/05/13 06:59:08;;;;;;;5.32;2.47;;;24.90;99.90;;;;;;4953973;28;20490;-53
2023/05/13 07:01:34;;;;;;;7.85;2.70;;;24.90;99.90;;;;;;4953412;29;20085;-53
2023/05/13 07:03:59;;;;;;;4.85;2.53;;;24.90;99.90;;;;;;4953535;28;20023;-53
2023/05/13 07:06:25;;;;;;;4.35;2.20;;;24.90;99.90;;;;;;4952314;28;20376;-54
2023/05/13 07:08:51;;;;;;;4.05;2.33;;;24.90;99.90;;;;;;4952294;28;20019;-54
2023/05/13 07:11:17;;;;;;;4.22;2.60;;;24.90;99.90;;;;;;4953424;28;20039;-55
2023/05/13 07:13:43;;;;;;;3.72;2.17;;;24.90;99.90;;;;;;4952669;28;20114;-53
2023/05/13 07:16:08;;;;;;;4.45;2.90;;;24.90;99.90;;;;;;4953756;28;20110;-54
2023/05/13 07:18:34;;;;;;;5.60;2.83;;;24.90;99.90;;;;;;4955305;28;20541;-54
2023/05/13 07:21:00;;;;;;;5.13;2.95;;;24.90;99.90;;;;;;4957073;28;20499;-56
2023/05/13 07:23:26;;;;;;;6.68;2.95;;;24.90;99.90;;;;;;4957234;28;20433;-56
2023/05/13 07:25:52;;;;;;;3.30;2.50;;;24.90;99.90;;;;;;4957157;28;20023;-55
2023/05/13 07:28:20;;;;;;;4.72;2.40;;;24.90;99.90;;;;;;4957003;28;20078;-55
2023/05/13 07:30:46;;;;;;;7.35;3.00;;;24.90;99.90;;;;;;4957312;28;20070;-54
2023/05/13 07:33:12;;;;;;;4.28;3.00;;;24.90;99.90;;;;;;4969768;28;20473;-54
2023/05/13 07:35:38;;;;;;;4.50;2.60;;;24.90;99.90;;;;;;4956968;28;20054;-54
2023/05/13 07:38:05;;;;;;;5.35;3.20;;;24.90;99.90;;;;;;4957136;28;20019;-54
2023/05/13 07:40:31;;;;;;;6.38;3.38;;;24.90;99.90;;;;;;4956924;28;20042;-54
2023/05/13 07:42:56;;;;;;;4.70;2.92;;;24.90;99.90;;;;;;4956703;28;20398;-54
2023/05/13 07:45:22;;;;;;;7.22;3.10;;;24.90;99.90;;;;;;4956974;28;20023;-54
2023/05/13 07:47:48;;;;;;;7.20;3.30;;;24.90;99.90;;;;;;4956723;28;20023;-55
2023/05/13 07:50:14;;;;;;;5.47;3.70;;;24.90;99.90;;;;;;4957130;28;20027;-55
2023/05/13 07:52:40;;;;;;;4.90;3.10;;;24.90;99.90;;;;;;4968242;28;20480;-55
2023/05/13 07:55:07;;;;;;;4.22;3.42;;;24.90;99.90;;;;;;4956557;28;20035;-55
2023/05/13 07:57:33;;;;;;;6.05;3.50;;;25.00;99.90;;;;;;4956610;28;20115;-55
2023/05/13 07:59:59;;;;;;;4.75;3.35;;;25.00;99.90;;;;;;4956405;28;20031;-54
2023/05/13 08:02:25;;;;;;;5.10;3.60;;;25.00;99.90;;;;;;4956280;28;20051;-54
2023/05/13 08:04:51;;;;;;;5.03;3.55;;;25.00;99.90;;;;;;4956336;28;20030;-54
2023/05/13 08:07:17;;;;;;;4.78;3.40;;;25.00;99.90;;;;;;4956435;28;20027;-55
2023/05/13 08:09:43;;;;;;;4.53;3.05;;;25.00;99.90;;;;;;4969277;28;20078;-55
2023/05/13 08:12:09;;;;;;;5.55;3.45;;;25.00;99.90;;;;;;4956243;28;20422;-54
2023/05/13 08:14:35;;;;;;;7.47;3.63;;;25.00;99.90;;;;;;4956134;28;20062;-55
2023/05/13 08:17:02;;;;;;;5.90;4.00;;;25.00;99.90;;;;;;4956225;28;20027;-54
2023/05/13 08:19:28;;;;;;;5.43;3.58;;;25.00;99.90;;;;;;4956091;28;20023;-54
2023/05/13 08:21:54;;;;;;;5.80;3.53;;;25.00;99.90;;;;;;4956139;28;20045;-53
2023/05/13 08:24:20;;;;;;;5.93;3.97;;;25.00;99.90;;;;;;4956115;28;20111;-53
2023/05/13 08:26:46;;;;;;;7.68;4.53;;;25.00;99.90;;;;;;4955067;28;20023;-54
2023/05/13 08:29:14;;;;;;;6.25;4.15;;;25.00;99.90;;;;;;4954405;28;20031;-54
2023/05/13 08:31:40;;;;;;;4.68;3.83;;;25.00;99.90;;;;;;4954721;28;20038;-54
2023/05/13 08:34:06;;;;;;;5.93;3.40;;;25.10;99.90;;;;;;4955959;28;20019;-54
2023/05/13 08:36:32;;;;;;;5.13;3.78;;;25.10;99.90;;;;;;4955797;28;20470;-54
2023/05/13 08:38:58;;;;;;;5.97;4.15;;;25.10;99.90;;;;;;4955880;28;20027;-54
2023/05/13 08:41:25;;;;;;;6.20;4.00;;;25.10;99.90;;;;;;4954399;29;20035;-54
2023/05/13 08:43:53;;;;;;;7.53;3.63;;;25.10;99.90;;;;;;4955362;28;20389;-53
2023/05/13 08:46:21;;;;;;;4.40;3.85;;;25.10;99.90;;;;;;4955920;28;20038;-53
2023/05/13 08:48:47;;;;;;;6.82;4.35;;;25.20;99.90;;;;;;4956140;28;20027;-53
2023/05/13 08:51:13;;;;;;;6.43;4.07;;;25.20;99.90;;;;;;4954490;28;20477;-54
2023/05/13 08:53:40;;;;;;;5.05;3.60;;;25.10;99.90;;;;;;4954941;28;20028;-54
2023/05/13 08:56:08;;;;;;;5.93;3.65;;;25.10;99.90;;;;;;4955119;28;20489;-53
2023/05/13 08:58:34;;;;;;;6.38;4.03;;;25.20;99.90;;;;;;4955324;28;20118;-54
2023/05/13 09:01:00;;;;;;;5.80;4.00;;;25.20;99.90;;;;;;4955257;28;20123;-54
2023/05/13 09:03:27;;;;;;;6.55;3.88;;;25.20;99.90;;;;;;4955415;28;20385;-54
2023/05/13 09:05:53;;;;;;;6.50;3.42;;;25.20;99.90;;;;;;4955008;28;20039;-53
2023/05/13 09:08:19;;;;;;;5.90;3.78;;;25.20;99.90;;;;;;4955458;28;20035;-53
2023/05/13 09:10:45;;;;;;;5.55;3.55;;;25.20;99.90;;;;;;4955179;28;20023;-53
2023/05/13 09:13:13;;;;;;;5.22;2.97;;;25.20;99.90;;;;;;4954586;28;20087;-54
2023/05/13 09:15:41;;;;;;;6.40;3.42;;;25.20;99.90;;;;;;4954899;28;20030;-54
2023/05/13 09:18:07;;;;;;;7.10;3.65;;;25.20;99.90;;;;;;4954968;28;20046;-54
2023/05/13 09:20:34;;;;;;;5.70;2.70;;;25.20;99.90;;;;;;4954952;28;20039;-54
2023/05/13 09:23:10;;;;;;;9.48;3.25;;;25.20;99.90;;;;;;4955153;28;20334;-54
2023/05/13 09:25:37;;;;;;;5.07;2.80;;;25.20;99.90;;;;;;4953738;28;20617;-54
2023/05/13 09:28:05;;;;;;;6.75;2.42;;;25.20;99.90;;;;;;4953636;28;20126;-53
2023/05/13 09:30:37;;;;;;;9.02;3.00;;;25.20;99.90;;;;;;4954784;28;20102;-54
2023/05/13 09:33:14;;;;;;;7.78;2.63;;;25.20;99.90;;;;;;4954607;28;20031;-53
2023/05/13 09:35:42;;;;;;;3.63;1.10;;;25.30;99.90;;;;;;4954278;28;20098;-53
2023/05/13 09:38:16;;;;;;;3.78;0.60;;;25.20;99.90;;;;;;4954693;28;20767;-55
2023/05/13 09:40:52;;;;;;;4.68;1.05;;;25.20;99.90;;;;;;4953897;28;20482;-55
2023/05/13 09:43:20;;;;;;;2.92;0.98;;;25.10;99.90;;;;;;4954848;28;20050;-57
2023/05/13 09:45:46;;;;;;;3.72;1.17;;;25.10;99.90;;;;;;4937648;29;20035;-56
2023/05/13 09:48:13;;;;;;;5.13;1.27;;;25.20;99.90;;;;;;4954578;28;20031;-55
2023/05/13 09:50:50;;;;;;;6.40;1.30;;;25.10;99.90;;;;;;4957631;28;20473;-54
2023/05/13 09:53:16;;;;;;;7.22;1.42;;;25.20;99.90;;;;;;4941403;29;20027;-55
2023/05/13 09:55:46;;;;;;;4.63;1.58;;;25.10;99.90;;;;;;4954355;28;20027;-55
2023/05/13 09:58:12;;;;;;;4.38;1.50;;;25.10;99.90;;;;;;4954356;28;20564;-54
2023/05/13 10:00:40;;;;;;;3.10;1.33;;;25.10;99.90;;;;;;4953743;28;20031;-54
2023/05/13 10:03:06;;;;;;;;;;;25.20;99.90;;;;;;4947765;28;20031;-53
2023/05/13 10:05:33;;;;;;;5.22;1.50;;;25.20;99.90;;;;;;4951586;28;19956;-54
2023/05/13 10:08:00;;;;;;;4.07;1.77;;;25.20;99.90;;;;;;4953163;28;20034;-54
2023/05/13 10:10:31;;;;;;;4.28;1.50;;;25.20;99.90;;;;;;4950691;28;20511;-54
2023/05/13 10:13:07;;;;;;;3.15;2.00;;;25.20;99.90;;;;;;4951156;29;20094;-54
2023/05/13 10:15:41;;;;;;;5.35;2.08;;;25.20;99.90;;;;;;4950419;28;20032;-54
2023/05/13 10:18:08;;;;;;;7.07;1.63;;;25.20;99.90;;;;;;4948790;29;20038;-55
2023/05/13 10:20:34;;;;;;;7.37;1.50;;;25.30;99.90;;;;;;4951500;28;20038;-52
2023/05/13 10:23:00;;;;;;;3.22;1.10;;;25.20;99.90;;;;;;4950731;29;20277;-53
2023/05/13 10:25:28;;;;;;;3.83;1.42;;;25.20;99.90;;;;;;4951559;28;20028;-52
2023/05/13 10:27:56;;;;;;;10.10;1.88;;;25.10;99.90;;;;;;4951710;28;20051;-52
2023/05/13 10:30:25;;;;;;;10.50;1.55;;;25.10;99.90;;;;;;4951599;29;20476;-52
2023/05/13 10:32:52;;;;;;;7.03;1.63;;;25.00;99.90;;;;;;4951715;28;20078;-52
2023/05/13 10:35:21;;;;;;;9.90;2.50;;;25.00;99.90;;;;;;4951845;28;20031;-51
2023/05/13 10:38:05;;;;;;;11.55;3.10;;;24.90;99.90;;;;;;4950205;29;20027;-53
2023/05/13 10:40:47;;;;;;;7.05;1.85;;;24.90;99.90;;;;;;4950816;29;20023;-52
2023/05/13 10:43:29;;;;;;;3.83;0.85;;;24.90;99.90;;;;;;4948731;29;20079;-55
2023/05/13 10:46:14;;;;;;;9.45;1.65;;;24.80;99.90;;;;;;4951851;28;20035;-53
2023/05/13 10:48:48;;;;;;;4.65;1.55;;;24.70;99.90;;;;;;4950965;29;20027;-52
2023/05/13 10:51:16;;;;;;;11.80;2.50;;;24.70;99.90;;;;;;4951246;28;20031;-52
2023/05/13 10:53:52;;;;;;;9.13;1.67;;;24.70;99.90;;;;;;4951326;28;20031;-51
2023/05/13 10:56:23;;;;;;;6.60;1.50;;;24.70;99.90;;;;;;4951427;28;20049;-52
2023/05/13 10:59:04;;;;;;;12.38;2.80;;;24.60;99.90;;;;;;4948188;28;20182;-52
2023/05/13 11:01:45;;;;;;;6.30;2.10;;;24.60;99.90;;;;;;4951023;29;20102;-52
2023/05/13 11:04:16;;;;;;;6.32;1.50;;;24.60;99.90;;;;;;4950422;28;20031;-53
2023/05/13 11:06:45;;;;;;;8.45;2.17;;;24.60;99.90;;;;;;4950953;28;20115;-52
2023/05/13 11:09:12;;;;;;;9.82;2.75;;;24.60;99.90;;;;;;4951144;28;20385;-53
2023/05/13 11:11:38;;;;;;;8.15;2.85;;;24.50;99.90;;;;;;4948468;29;20385;-52
2023/05/13 11:14:16;;;;;;;8.60;3.25;;;24.50;99.90;;;;;;4951236;28;20023;-52
2023/05/13 11:17:01;;;;;;;7.18;2.50;;;24.50;99.90;;;;;;4950993;28;20031;-52
2023/05/13 11:19:27;;;;;;;7.75;1.20;;;24.40;99.90;;;;;;4950075;28;20070;-52
2023/05/13 11:22:12;;;;;;;7.45;2.10;;;24.40;99.90;;;;;;4951573;28;20035;-53
2023/05/13 11:24:38;;;;;;;7.72;1.90;;;24.30;99.90;;;;;;4965167;28;20505;-52
2023/05/13 11:27:20;;;;;;;6.63;2.10;;;24.30;99.90;;;;;;4966109;28;20063;-52
2023/05/13 11:29:51;;;;;;;4.88;1.42;;;24.30;99.90;;;;;;4949363;29;20030;-52
2023/05/13 11:32:54;;;;;;;5.70;1.20;;;24.30;99.90;;;;;;4948900;29;20039;-52
2023/05/13 11:35:26;;;;;;;5.75;1.52;;;24.30;99.90;;;;;;4948228;29;20026;-52
2023/05/13 11:37:52;;;;;;;4.25;2.30;;;24.20;99.90;;;;;;4949861;29;20031;-52
2023/05/13 11:40:23;;;;;;;5.05;1.30;;;24.20;99.90;;;;;;4950999;28;20035;-52
2023/05/13 11:42:49;;;;;;;4.03;1.17;;;24.20;99.90;;;;;;4948962;28;20027;-53
2023/05/13 11:45:19;;;;;;;2.85;0.98;;;24.20;99.90;;;;;;4950986;28;20027;-53
2023/05/13 11:47:45;;;;;;;1.98;0.80;;;24.20;99.90;;;;;;4951262;28;20035;-54
2023/05/13 11:50:31;;;;;;;2.60;0.70;;;24.20;99.90;;;;;;4951328;28;20085;-54
2023/05/13 11:52:59;;;;;;;2.88;0.93;;;24.20;99.90;;;;;;4950454;28;20501;-54
2023/05/13 11:55:33;;;;;;;;;;;24.10;99.90;;;;;;4951564;28;20064;-54
2023/05/13 11:57:59;;;;;;;1.00;0.68;;;24.10;99.90;;;;;;4951029;28;20445;-55
2023/05/13 12:00:26;;;;;;;2.13;0.52;;;24.10;99.90;;;;;;4951293;28;20031;-54
2023/05/13 12:02:52;;;;;;;5.38;1.05;;;24.20;99.90;;;;;;4951360;28;20428;-54
2023/05/13 12:05:18;;;;;;;1.85;0.68;;;24.10;99.90;;;;;;4969372;28;20031;-53
2023/05/13 12:07:44;;;;;;;1.45;0.77;;;24.10;99.90;;;;;;4954221;28;20019;-56
2023/05/13 12:10:10;;;;;;;2.92;0.90;;;24.10;99.90;;;;;;4953940;28;20070;-53
2023/05/13 12:12:42;;;;;;;3.80;1.25;;;24.20;99.90;;;;;;4953836;28;20023;-54
2023/05/13 12:15:09;;;;;;;9.10;1.55;;;24.10;99.90;;;;;;4954056;28;20027;-54
2023/05/13 12:17:36;;;;;;;11.93;3.22;;;24.10;99.90;;;;;;4953640;28;20031;-55
2023/05/13 12:20:10;;;;;;;15.07;3.00;;;24.10;99.90;;;;;;4965081;28;20478;-56
2023/05/13 12:22:42;;;;;;;13.30;3.83;;;24.20;99.90;;;;;;4954071;28;20075;-57
2023/05/13 12:25:36;;;;;;;5.55;1.50;;;24.20;99.90;;;;;;4964095;28;20493;-57
2023/05/13 12:28:10;;;;;;;4.15;1.50;;;24.20;99.90;;;;;;4951756;29;20034;-55
2023/05/13 12:30:38;;;;;;;3.58;1.55;;;24.20;99.90;;;;;;4954107;28;20020;-55
2023/05/13 12:33:04;;;;;;;2.88;1.00;;;24.20;99.90;;;;;;4953994;28;20030;-55
2023/05/13 12:35:33;;;;;;;1.65;0.70;;;24.20;99.90;;;;;;4954063;28;20028;-55
2023/05/13 12:38:03;;;;;;;2.95;1.02;;;24.20;99.90;;;;;;4954187;29;20015;-55
2023/05/13 12:40:30;;;;;;;2.38;1.00;;;24.20;99.90;;;;;;4953583;28;20387;-54
2023/05/13 12:43:01;;;;;;;3.73;2.00;;;24.20;99.90;;;;;;4953886;28;20031;-56
2023/05/13 12:45:31;;;;;;;5.03;1.67;;;24.20;99.90;;;;;;4950286;29;20024;-55
2023/05/13 12:47:58;;;;;;;4.97;1.00;;;24.20;99.90;;;;;;4953123;28;20035;-54
2023/05/13 12:50:25;;;;;;;4.38;0.80;;;24.30;99.90;;;;;;4952925;28;20023;-55
2023/05/13 12:52:56;;;;;;;6.97;1.25;;;24.30;99.90;;;;;;4953335;28;20390;-54